sensor_id;sensor_type;location;lat;lon;timestamp;P1;durP1;ratioP1;P2;durP2;ratioP2
13463;SDS011;6804;48.774;9.174;2024-01-11T00:00:21;25.23;;;15.40;;
13463;SDS011;6804;48.774;9.174;2024-01-11T00:02:50;29.17;;;15.57;;
13463;SDS011;6804;48.774;9.174;2024-01-11T00:05:18;24.77;;;14.93;;
13463;SDS011;6804;48.774;9.174;2024-01-11T00:07:51;20.60;;;14.23;;
13463;SDS011;6804;48.774;9.174;2024-01-11T00:10:18;20.10;;;14.97;;
13463;SDS011;6804;48.774;9.174;2024-01-11T00:12:46;23.13;;;15.27;;
13463;SDS011;6804;48.774;9.174;2024-01-11T00:15:14;26.33;;;16.30;;
13463;SDS011;6804;48.774;9.174;2024-01-11T00:17:41;25.83;;;15.93;;
13463;SDS011;6804;48.774;9.174;2024-01-11T00:20:17;23.67;;;16.20;;
13463;SDS011;6804;48.774;9.174;2024-01-11T00:22:46;24.60;;;15.67;;
13463;SDS011;6804;48.774;9.174;2024-01-11T00:25:18;27.73;;;15.07;;
13463;SDS011;6804;48.774;9.174;2024-01-11T00:27:49;25.60;;;15.50;;
13463;SDS011;6804;48.774;9.174;2024-01-11T00:30:16;24.50;;;15.00;;
13463;SDS011;6804;48.774;9.174;2024-01-11T00:35:33;23.60;;;14.93;;
13463;SDS011;6804;48.774;9.174;2024-01-11T00:38:01;25.77;;;15.17;;
13463;SDS011;6804;48.774;9.174;2024-01-11T00:40:30;23.30;;;14.87;;
13463;SDS011;6804;48.774;9.174;2024-01-11T00:42:58;26.73;;;15.63;;
13463;SDS011;6804;48.774;9.174;2024-01-11T00:48:15;25.63;;;16.27;;
13463;SDS011;6804;48.774;9.174;2024-01-11T00:50:45;25.37;;;15.53;;
13463;SDS011;6804;48.774;9.174;2024-01-11T00:53:15;24.07;;;15.47;;
13463;SDS011;6804;48.774;9.174;2024-01-11T00:55:45;23.20;;;14.93;;
13463;SDS011;6804;48.774;9.174;2024-01-11T00:58:15;23.97;;;15.57;;
13463;SDS011;6804;48.774;9.174;2024-01-11T01:00:42;23.50;;;15.50;;
13463;SDS011;6804;48.774;9.174;2024-01-11T01:03:11;23.40;;;15.07;;
13463;SDS011;6804;48.774;9.174;2024-01-11T01:05:39;25.33;;;15.43;;
13463;SDS011;6804;48.774;9.174;2024-01-11T01:08:07;21.70;;;15.70;;
13463;SDS011;6804;48.774;9.174;2024-01-11T01:10:37;24.90;;;14.87;;
13463;SDS011;6804;48.774;9.174;2024-01-11T01:13:09;24.60;;;15.50;;
13463;SDS011;6804;48.774;9.174;2024-01-11T01:15:40;24.03;;;15.03;;
13463;SDS011;6804;48.774;9.174;2024-01-11T01:18:09;24.77;;;14.73;;
13463;SDS011;6804;48.774;9.174;2024-01-11T01:20:39;25.00;;;14.73;;
13463;SDS011;6804;48.774;9.174;2024-01-11T01:23:08;22.53;;;14.93;;
13463;SDS011;6804;48.774;9.174;2024-01-11T01:25:36;26.00;;;16.23;;
13463;SDS011;6804;48.774;9.174;2024-01-11T01:28:03;24.93;;;15.03;;
13463;SDS011;6804;48.774;9.174;2024-01-11T01:30:32;26.03;;;15.90;;
13463;SDS011;6804;48.774;9.174;2024-01-11T01:33:02;24.23;;;15.37;;
13463;SDS011;6804;48.774;9.174;2024-01-11T01:35:32;28.60;;;16.80;;
13463;SDS011;6804;48.774;9.174;2024-01-11T01:38:01;25.97;;;16.00;;
13463;SDS011;6804;48.774;9.174;2024-01-11T01:40:30;27.50;;;15.67;;
13463;SDS011;6804;48.774;9.174;2024-01-11T01:43:06;24.43;;;15.10;;
13463;SDS011;6804;48.774;9.174;2024-01-11T01:45:37;24.90;;;16.47;;
13463;SDS011;6804;48.774;9.174;2024-01-11T01:48:05;25.30;;;16.50;;
13463;SDS011;6804;48.774;9.174;2024-01-11T01:50:32;25.53;;;15.53;;
13463;SDS011;6804;48.774;9.174;2024-01-11T01:53:01;26.93;;;17.43;;
13463;SDS011;6804;48.774;9.174;2024-01-11T01:55:29;25.23;;;14.67;;
13463;SDS011;6804;48.774;9.174;2024-01-11T01:57:57;25.63;;;16.10;;
13463;SDS011;6804;48.774;9.174;2024-01-11T02:00:25;25.80;;;16.20;;
13463;SDS011;6804;48.774;9.174;2024-01-11T02:02:57;23.83;;;15.37;;
13463;SDS011;6804;48.774;9.174;2024-01-11T02:05:28;26.37;;;15.90;;
13463;SDS011;6804;48.774;9.174;2024-01-11T02:07:56;24.30;;;15.50;;
13463;SDS011;6804;48.774;9.174;2024-01-11T02:10:30;25.63;;;15.33;;
13463;SDS011;6804;48.774;9.174;2024-01-11T02:13:02;22.43;;;15.63;;
13463;SDS011;6804;48.774;9.174;2024-01-11T02:15:33;25.50;;;15.73;;
13463;SDS011;6804;48.774;9.174;2024-01-11T02:18:06;23.67;;;16.23;;
13463;SDS011;6804;48.774;9.174;2024-01-11T02:20:33;25.93;;;16.00;;
13463;SDS011;6804;48.774;9.174;2024-01-11T02:23:03;26.60;;;15.87;;
13463;SDS011;6804;48.774;9.174;2024-01-11T02:25:40;26.10;;;15.63;;
13463;SDS011;6804;48.774;9.174;2024-01-11T02:28:09;29.40;;;18.07;;
13463;SDS011;6804;48.774;9.174;2024-01-11T02:30:37;25.00;;;15.70;;
13463;SDS011;6804;48.774;9.174;2024-01-11T02:33:05;24.70;;;14.83;;
13463;SDS011;6804;48.774;9.174;2024-01-11T02:35:33;24.47;;;15.67;;
13463;SDS011;6804;48.774;9.174;2024-01-11T02:38:04;26.33;;;16.17;;
13463;SDS011;6804;48.774;9.174;2024-01-11T02:40:32;26.83;;;15.67;;
13463;SDS011;6804;48.774;9.174;2024-01-11T02:45:54;25.03;;;15.87;;
13463;SDS011;6804;48.774;9.174;2024-01-11T02:48:27;26.90;;;16.40;;
13463;SDS011;6804;48.774;9.174;2024-01-11T02:50:55;20.40;;;13.87;;
13463;SDS011;6804;48.774;9.174;2024-01-11T02:53:23;22.57;;;14.07;;
13463;SDS011;6804;48.774;9.174;2024-01-11T02:55:53;23.83;;;15.40;;
13463;SDS011;6804;48.774;9.174;2024-01-11T02:58:26;26.67;;;16.03;;
13463;SDS011;6804;48.774;9.174;2024-01-11T03:00:54;25.57;;;15.10;;
13463;SDS011;6804;48.774;9.174;2024-01-11T03:03:22;29.20;;;15.00;;
13463;SDS011;6804;48.774;9.174;2024-01-11T03:05:52;28.33;;;15.07;;
13463;SDS011;6804;48.774;9.174;2024-01-11T03:08:20;26.07;;;15.33;;
13463;SDS011;6804;48.774;9.174;2024-01-11T03:10:56;26.73;;;16.07;;
13463;SDS011;6804;48.774;9.174;2024-01-11T03:13:24;25.77;;;15.20;;
13463;SDS011;6804;48.774;9.174;2024-01-11T03:15:53;25.30;;;16.47;;
13463;SDS011;6804;48.774;9.174;2024-01-11T03:18:20;24.53;;;15.87;;
13463;SDS011;6804;48.774;9.174;2024-01-11T03:20:47;25.87;;;16.87;;
13463;SDS011;6804;48.774;9.174;2024-01-11T03:23:15;26.23;;;16.50;;
13463;SDS011;6804;48.774;9.174;2024-01-11T03:25:42;25.03;;;16.23;;
13463;SDS011;6804;48.774;9.174;2024-01-11T03:28:09;26.63;;;15.53;;
13463;SDS011;6804;48.774;9.174;2024-01-11T03:30:39;26.33;;;15.93;;
13463;SDS011;6804;48.774;9.174;2024-01-11T03:33:09;24.83;;;16.13;;
13463;SDS011;6804;48.774;9.174;2024-01-11T03:35:37;27.83;;;16.30;;
13463;SDS011;6804;48.774;9.174;2024-01-11T03:38:09;25.87;;;15.90;;
13463;SDS011;6804;48.774;9.174;2024-01-11T03:40:36;23.33;;;14.97;;
13463;SDS011;6804;48.774;9.174;2024-01-11T03:43:03;26.07;;;15.60;;
13463;SDS011;6804;48.774;9.174;2024-01-11T03:45:33;26.63;;;16.40;;
13463;SDS011;6804;48.774;9.174;2024-01-11T03:48:01;23.53;;;15.33;;
13463;SDS011;6804;48.774;9.174;2024-01-11T03:50:32;24.73;;;15.13;;
13463;SDS011;6804;48.774;9.174;2024-01-11T03:52:59;26.47;;;16.10;;
13463;SDS011;6804;48.774;9.174;2024-01-11T03:55:33;25.57;;;15.60;;
13463;SDS011;6804;48.774;9.174;2024-01-11T03:58:01;26.43;;;15.57;;
13463;SDS011;6804;48.774;9.174;2024-01-11T04:00:28;26.23;;;16.00;;
13463;SDS011;6804;48.774;9.174;2024-01-11T04:02:59;26.03;;;15.93;;
13463;SDS011;6804;48.774;9.174;2024-01-11T04:05:27;23.70;;;15.67;;
13463;SDS011;6804;48.774;9.174;2024-01-11T04:07:59;26.40;;;16.37;;
13463;SDS011;6804;48.774;9.174;2024-01-11T04:10:29;25.27;;;15.73;;
13463;SDS011;6804;48.774;9.174;2024-01-11T04:13:03;27.73;;;16.57;;
13463;SDS011;6804;48.774;9.174;2024-01-11T04:15:32;28.60;;;15.60;;
13463;SDS011;6804;48.774;9.174;2024-01-11T04:18:00;23.20;;;15.00;;
13463;SDS011;6804;48.774;9.174;2024-01-11T04:20:29;25.60;;;16.23;;
13463;SDS011;6804;48.774;9.174;2024-01-11T04:23:03;24.70;;;16.13;;
13463;SDS011;6804;48.774;9.174;2024-01-11T04:25:31;26.83;;;15.97;;
13463;SDS011;6804;48.774;9.174;2024-01-11T04:28:01;27.03;;;16.13;;
13463;SDS011;6804;48.774;9.174;2024-01-11T04:30:29;24.03;;;16.33;;
13463;SDS011;6804;48.774;9.174;2024-01-11T04:32:58;26.43;;;16.50;;
13463;SDS011;6804;48.774;9.174;2024-01-11T04:35:26;24.60;;;15.20;;
13463;SDS011;6804;48.774;9.174;2024-01-11T04:37:54;25.30;;;15.17;;
13463;SDS011;6804;48.774;9.174;2024-01-11T04:40:22;25.70;;;16.50;;
13463;SDS011;6804;48.774;9.174;2024-01-11T04:42:49;26.37;;;16.50;;
13463;SDS011;6804;48.774;9.174;2024-01-11T04:45:17;23.47;;;15.93;;
13463;SDS011;6804;48.774;9.174;2024-01-11T04:47:50;24.37;;;16.13;;
13463;SDS011;6804;48.774;9.174;2024-01-11T04:50:20;26.80;;;16.50;;
13463;SDS011;6804;48.774;9.174;2024-01-11T04:52:50;26.27;;;15.30;;
13463;SDS011;6804;48.774;9.174;2024-01-11T04:55:22;27.27;;;17.20;;
13463;SDS011;6804;48.774;9.174;2024-01-11T04:57:49;26.73;;;16.40;;
13463;SDS011;6804;48.774;9.174;2024-01-11T05:00:17;29.07;;;16.73;;
13463;SDS011;6804;48.774;9.174;2024-01-11T05:02:45;26.13;;;16.53;;
13463;SDS011;6804;48.774;9.174;2024-01-11T05:05:12;25.47;;;16.50;;
13463;SDS011;6804;48.774;9.174;2024-01-11T05:07:45;25.70;;;15.70;;
13463;SDS011;6804;48.774;9.174;2024-01-11T05:10:13;25.57;;;15.83;;
13463;SDS011;6804;48.774;9.174;2024-01-11T05:12:42;23.87;;;15.47;;
13463;SDS011;6804;48.774;9.174;2024-01-11T05:15:10;27.30;;;15.50;;
13463;SDS011;6804;48.774;9.174;2024-01-11T05:17:38;25.80;;;15.60;;
13463;SDS011;6804;48.774;9.174;2024-01-11T05:20:05;27.70;;;16.40;;
13463;SDS011;6804;48.774;9.174;2024-01-11T05:22:34;28.80;;;16.37;;
13463;SDS011;6804;48.774;9.174;2024-01-11T05:25:01;24.07;;;15.37;;
13463;SDS011;6804;48.774;9.174;2024-01-11T05:27:29;28.23;;;18.17;;
13463;SDS011;6804;48.774;9.174;2024-01-11T05:29:59;26.57;;;16.50;;
13463;SDS011;6804;48.774;9.174;2024-01-11T05:32:27;27.87;;;17.13;;
13463;SDS011;6804;48.774;9.174;2024-01-11T05:37:43;28.07;;;17.80;;
13463;SDS011;6804;48.774;9.174;2024-01-11T05:40:11;25.73;;;15.97;;
13463;SDS011;6804;48.774;9.174;2024-01-11T05:42:43;28.40;;;17.20;;
13463;SDS011;6804;48.774;9.174;2024-01-11T05:45:16;26.50;;;16.90;;
13463;SDS011;6804;48.774;9.174;2024-01-11T05:50:32;27.70;;;16.83;;
13463;SDS011;6804;48.774;9.174;2024-01-11T05:53:04;22.83;;;15.57;;
13463;SDS011;6804;48.774;9.174;2024-01-11T05:55:32;32.63;;;18.73;;
13463;SDS011;6804;48.774;9.174;2024-01-11T06:00:55;24.93;;;14.97;;
13463;SDS011;6804;48.774;9.174;2024-01-11T06:03:22;24.60;;;16.10;;
13463;SDS011;6804;48.774;9.174;2024-01-11T06:05:53;29.13;;;15.97;;
13463;SDS011;6804;48.774;9.174;2024-01-11T06:08:26;35.20;;;16.87;;
13463;SDS011;6804;48.774;9.174;2024-01-11T06:10:53;26.30;;;16.17;;
13463;SDS011;6804;48.774;9.174;2024-01-11T06:13:25;31.23;;;16.90;;
13463;SDS011;6804;48.774;9.174;2024-01-11T06:15:56;26.30;;;16.33;;
13463;SDS011;6804;48.774;9.174;2024-01-11T06:18:23;26.27;;;15.87;;
13463;SDS011;6804;48.774;9.174;2024-01-11T06:20:50;29.53;;;17.57;;
13463;SDS011;6804;48.774;9.174;2024-01-11T06:23:18;27.40;;;16.27;;
13463;SDS011;6804;48.774;9.174;2024-01-11T06:25:49;26.40;;;16.73;;
13463;SDS011;6804;48.774;9.174;2024-01-11T06:28:17;26.00;;;15.83;;
13463;SDS011;6804;48.774;9.174;2024-01-11T06:30:44;26.63;;;16.33;;
13463;SDS011;6804;48.774;9.174;2024-01-11T06:33:18;27.90;;;16.30;;
13463;SDS011;6804;48.774;9.174;2024-01-11T06:38:33;26.70;;;15.77;;
13463;SDS011;6804;48.774;9.174;2024-01-11T06:41:03;26.27;;;16.60;;
13463;SDS011;6804;48.774;9.174;2024-01-11T06:43:31;27.73;;;17.67;;
13463;SDS011;6804;48.774;9.174;2024-01-11T06:46:02;26.20;;;17.20;;
13463;SDS011;6804;48.774;9.174;2024-01-11T06:48:38;27.53;;;16.37;;
13463;SDS011;6804;48.774;9.174;2024-01-11T06:51:09;29.30;;;16.83;;
13463;SDS011;6804;48.774;9.174;2024-01-11T06:53:36;29.10;;;17.07;;
13463;SDS011;6804;48.774;9.174;2024-01-11T06:56:12;29.00;;;16.97;;
13463;SDS011;6804;48.774;9.174;2024-01-11T06:58:42;26.57;;;15.90;;
13463;SDS011;6804;48.774;9.174;2024-01-11T07:01:13;28.53;;;16.93;;
13463;SDS011;6804;48.774;9.174;2024-01-11T07:03:49;27.10;;;15.87;;
13463;SDS011;6804;48.774;9.174;2024-01-11T07:06:17;26.30;;;16.63;;
13463;SDS011;6804;48.774;9.174;2024-01-11T07:08:46;27.70;;;17.17;;
13463;SDS011;6804;48.774;9.174;2024-01-11T07:11:16;28.10;;;16.43;;
13463;SDS011;6804;48.774;9.174;2024-01-11T07:13:47;30.43;;;16.73;;
13463;SDS011;6804;48.774;9.174;2024-01-11T07:16:15;26.33;;;16.70;;
13463;SDS011;6804;48.774;9.174;2024-01-11T07:18:50;28.27;;;15.83;;
13463;SDS011;6804;48.774;9.174;2024-01-11T07:21:20;28.37;;;16.03;;
13463;SDS011;6804;48.774;9.174;2024-01-11T07:23:55;27.30;;;17.00;;
13463;SDS011;6804;48.774;9.174;2024-01-11T07:26:26;27.93;;;17.10;;
13463;SDS011;6804;48.774;9.174;2024-01-11T07:28:56;26.30;;;16.47;;
13463;SDS011;6804;48.774;9.174;2024-01-11T07:31:23;24.90;;;16.33;;
13463;SDS011;6804;48.774;9.174;2024-01-11T07:33:53;30.70;;;17.30;;
13463;SDS011;6804;48.774;9.174;2024-01-11T07:36:26;32.03;;;17.87;;
13463;SDS011;6804;48.774;9.174;2024-01-11T07:38:58;29.37;;;16.97;;
13463;SDS011;6804;48.774;9.174;2024-01-11T07:41:25;26.40;;;16.70;;
13463;SDS011;6804;48.774;9.174;2024-01-11T07:43:53;26.90;;;16.23;;
13463;SDS011;6804;48.774;9.174;2024-01-11T07:46:32;26.83;;;17.37;;
13463;SDS011;6804;48.774;9.174;2024-01-11T07:49:01;32.87;;;17.27;;
13463;SDS011;6804;48.774;9.174;2024-01-11T07:51:30;27.30;;;17.53;;
13463;SDS011;6804;48.774;9.174;2024-01-11T07:53:58;30.13;;;17.43;;
13463;SDS011;6804;48.774;9.174;2024-01-11T07:56:26;25.03;;;15.77;;
13463;SDS011;6804;48.774;9.174;2024-01-11T07:58:56;29.17;;;17.57;;
13463;SDS011;6804;48.774;9.174;2024-01-11T08:01:31;31.03;;;17.60;;
13463;SDS011;6804;48.774;9.174;2024-01-11T08:04:02;28.40;;;17.87;;
13463;SDS011;6804;48.774;9.174;2024-01-11T08:06:30;30.10;;;17.50;;
13463;SDS011;6804;48.774;9.174;2024-01-11T08:08:58;26.93;;;17.80;;
13463;SDS011;6804;48.774;9.174;2024-01-11T08:11:29;32.77;;;18.87;;
13463;SDS011;6804;48.774;9.174;2024-01-11T08:13:56;40.87;;;19.10;;
13463;SDS011;6804;48.774;9.174;2024-01-11T08:16:25;34.00;;;21.77;;
13463;SDS011;6804;48.774;9.174;2024-01-11T08:18:53;41.87;;;21.60;;
13463;SDS011;6804;48.774;9.174;2024-01-11T08:21:22;37.93;;;22.23;;
13463;SDS011;6804;48.774;9.174;2024-01-11T08:23:52;35.27;;;19.63;;
13463;SDS011;6804;48.774;9.174;2024-01-11T08:34:44;38.60;;;23.27;;
13463;SDS011;6804;48.774;9.174;2024-01-11T08:37:13;30.93;;;18.33;;
13463;SDS011;6804;48.774;9.174;2024-01-11T08:39:40;35.67;;;21.43;;
13463;SDS011;6804;48.774;9.174;2024-01-11T08:42:11;35.87;;;20.10;;
13463;SDS011;6804;48.774;9.174;2024-01-11T08:44:40;37.93;;;19.70;;
13463;SDS011;6804;48.774;9.174;2024-01-11T08:49:58;42.23;;;20.00;;
13463;SDS011;6804;48.774;9.174;2024-01-11T08:52:34;31.47;;;19.23;;
13463;SDS011;6804;48.774;9.174;2024-01-11T08:55:03;33.00;;;18.90;;
13463;SDS011;6804;48.774;9.174;2024-01-11T08:57:31;38.97;;;19.57;;
13463;SDS011;6804;48.774;9.174;2024-01-11T09:00:01;43.03;;;20.57;;
13463;SDS011;6804;48.774;9.174;2024-01-11T09:02:29;31.67;;;19.17;;
13463;SDS011;6804;48.774;9.174;2024-01-11T09:05:00;35.83;;;19.07;;
13463;SDS011;6804;48.774;9.174;2024-01-11T09:07:27;34.20;;;20.13;;
13463;SDS011;6804;48.774;9.174;2024-01-11T09:09:57;34.03;;;19.63;;
13463;SDS011;6804;48.774;9.174;2024-01-11T09:12:24;33.53;;;20.10;;
13463;SDS011;6804;48.774;9.174;2024-01-11T09:14:55;35.90;;;19.67;;
13463;SDS011;6804;48.774;9.174;2024-01-11T09:17:22;31.80;;;19.93;;
13463;SDS011;6804;48.774;9.174;2024-01-11T09:19:50;32.13;;;19.50;;
13463;SDS011;6804;48.774;9.174;2024-01-11T09:22:18;32.80;;;20.67;;
13463;SDS011;6804;48.774;9.174;2024-01-11T09:24:46;41.30;;;20.53;;
13463;SDS011;6804;48.774;9.174;2024-01-11T09:27:15;32.13;;;20.10;;
13463;SDS011;6804;48.774;9.174;2024-01-11T09:29:43;34.53;;;20.57;;
13463;SDS011;6804;48.774;9.174;2024-01-11T09:32:12;36.53;;;21.60;;
13463;SDS011;6804;48.774;9.174;2024-01-11T09:34:39;32.93;;;20.57;;
13463;SDS011;6804;48.774;9.174;2024-01-11T09:39:58;31.80;;;20.03;;
13463;SDS011;6804;48.774;9.174;2024-01-11T09:42:35;32.63;;;19.80;;
13463;SDS011;6804;48.774;9.174;2024-01-11T09:45:02;31.37;;;19.87;;
13463;SDS011;6804;48.774;9.174;2024-01-11T09:47:40;32.50;;;20.90;;
13463;SDS011;6804;48.774;9.174;2024-01-11T09:50:13;38.63;;;20.53;;
13463;SDS011;6804;48.774;9.174;2024-01-11T09:52:44;38.73;;;21.53;;
13463;SDS011;6804;48.774;9.174;2024-01-11T09:55:13;36.70;;;23.30;;
13463;SDS011;6804;48.774;9.174;2024-01-11T09:57:43;38.13;;;21.77;;
13463;SDS011;6804;48.774;9.174;2024-01-11T10:00:13;33.00;;;19.67;;
13463;SDS011;6804;48.774;9.174;2024-01-11T10:02:44;40.73;;;24.63;;
13463;SDS011;6804;48.774;9.174;2024-01-11T10:05:12;32.30;;;20.80;;
13463;SDS011;6804;48.774;9.174;2024-01-11T10:07:40;35.37;;;22.57;;
13463;SDS011;6804;48.774;9.174;2024-01-11T10:10:08;34.43;;;19.13;;
13463;SDS011;6804;48.774;9.174;2024-01-11T10:12:45;38.07;;;21.37;;
13463;SDS011;6804;48.774;9.174;2024-01-11T10:15:18;31.93;;;19.90;;
13463;SDS011;6804;48.774;9.174;2024-01-11T10:17:50;34.47;;;20.60;;
13463;SDS011;6804;48.774;9.174;2024-01-11T10:20:21;28.87;;;18.77;;
13463;SDS011;6804;48.774;9.174;2024-01-11T10:22:49;31.43;;;20.63;;
13463;SDS011;6804;48.774;9.174;2024-01-11T10:25:20;35.90;;;21.80;;
13463;SDS011;6804;48.774;9.174;2024-01-11T10:27:52;33.73;;;20.00;;
13463;SDS011;6804;48.774;9.174;2024-01-11T10:30:20;32.63;;;20.87;;
13463;SDS011;6804;48.774;9.174;2024-01-11T10:32:51;34.13;;;21.37;;
13463;SDS011;6804;48.774;9.174;2024-01-11T10:35:19;32.23;;;20.40;;
13463;SDS011;6804;48.774;9.174;2024-01-11T10:37:48;32.27;;;19.67;;
13463;SDS011;6804;48.774;9.174;2024-01-11T10:40:20;35.23;;;21.30;;
13463;SDS011;6804;48.774;9.174;2024-01-11T10:42:52;35.23;;;21.80;;
13463;SDS011;6804;48.774;9.174;2024-01-11T10:45:20;33.30;;;21.07;;
13463;SDS011;6804;48.774;9.174;2024-01-11T10:47:53;31.60;;;21.27;;
13463;SDS011;6804;48.774;9.174;2024-01-11T10:50:24;35.13;;;23.03;;
13463;SDS011;6804;48.774;9.174;2024-01-11T10:52:56;31.07;;;21.57;;
13463;SDS011;6804;48.774;9.174;2024-01-11T10:55:30;36.33;;;22.43;;
13463;SDS011;6804;48.774;9.174;2024-01-11T10:58:09;42.80;;;23.43;;
13463;SDS011;6804;48.774;9.174;2024-01-11T11:00:37;37.33;;;22.17;;
13463;SDS011;6804;48.774;9.174;2024-01-11T11:03:05;44.57;;;25.23;;
13463;SDS011;6804;48.774;9.174;2024-01-11T11:05:34;36.40;;;22.27;;
13463;SDS011;6804;48.774;9.174;2024-01-11T11:08:02;52.57;;;22.23;;
13463;SDS011;6804;48.774;9.174;2024-01-11T11:10:35;39.80;;;22.33;;
13463;SDS011;6804;48.774;9.174;2024-01-11T11:13:09;38.37;;;22.63;;
13463;SDS011;6804;48.774;9.174;2024-01-11T11:15:41;39.73;;;21.50;;
13463;SDS011;6804;48.774;9.174;2024-01-11T11:18:14;42.93;;;24.50;;
13463;SDS011;6804;48.774;9.174;2024-01-11T11:20:43;63.20;;;24.57;;
13463;SDS011;6804;48.774;9.174;2024-01-11T11:23:15;47.50;;;27.93;;
13463;SDS011;6804;48.774;9.174;2024-01-11T11:25:46;35.20;;;21.77;;
13463;SDS011;6804;48.774;9.174;2024-01-11T11:28:19;41.30;;;22.47;;
13463;SDS011;6804;48.774;9.174;2024-01-11T11:30:55;38.00;;;21.80;;
13463;SDS011;6804;48.774;9.174;2024-01-11T11:33:29;49.07;;;22.17;;
13463;SDS011;6804;48.774;9.174;2024-01-11T11:35:57;35.63;;;22.93;;
13463;SDS011;6804;48.774;9.174;2024-01-11T11:38:28;38.70;;;23.70;;
13463;SDS011;6804;48.774;9.174;2024-01-11T11:40:59;35.27;;;23.33;;
13463;SDS011;6804;48.774;9.174;2024-01-11T11:43:37;52.10;;;31.10;;
13463;SDS011;6804;48.774;9.174;2024-01-11T11:46:16;34.60;;;21.63;;
13463;SDS011;6804;48.774;9.174;2024-01-11T11:48:48;40.50;;;23.37;;
13463;SDS011;6804;48.774;9.174;2024-01-11T11:51:21;37.47;;;23.17;;
13463;SDS011;6804;48.774;9.174;2024-01-11T11:53:50;32.50;;;21.37;;
13463;SDS011;6804;48.774;9.174;2024-01-11T11:56:21;38.83;;;22.73;;
13463;SDS011;6804;48.774;9.174;2024-01-11T11:58:53;31.37;;;21.07;;
13463;SDS011;6804;48.774;9.174;2024-01-11T12:01:25;32.83;;;21.70;;
13463;SDS011;6804;48.774;9.174;2024-01-11T12:03:52;34.33;;;22.13;;
13463;SDS011;6804;48.774;9.174;2024-01-11T12:06:20;35.13;;;22.67;;
13463;SDS011;6804;48.774;9.174;2024-01-11T12:08:52;31.70;;;22.17;;
13463;SDS011;6804;48.774;9.174;2024-01-11T12:11:21;34.10;;;21.50;;
13463;SDS011;6804;48.774;9.174;2024-01-11T12:13:49;32.43;;;21.70;;
13463;SDS011;6804;48.774;9.174;2024-01-11T12:16:20;34.43;;;21.23;;
13463;SDS011;6804;48.774;9.174;2024-01-11T12:18:50;62.63;;;23.87;;
13463;SDS011;6804;48.774;9.174;2024-01-11T12:21:19;33.30;;;22.23;;
13463;SDS011;6804;48.774;9.174;2024-01-11T12:23:49;31.97;;;22.33;;
13463;SDS011;6804;48.774;9.174;2024-01-11T12:26:20;34.00;;;23.00;;
13463;SDS011;6804;48.774;9.174;2024-01-11T12:28:49;38.00;;;23.80;;
13463;SDS011;6804;48.774;9.174;2024-01-11T12:31:17;49.87;;;23.47;;
13463;SDS011;6804;48.774;9.174;2024-01-11T12:33:48;35.20;;;24.00;;
13463;SDS011;6804;48.774;9.174;2024-01-11T12:36:16;30.30;;;20.23;;
13463;SDS011;6804;48.774;9.174;2024-01-11T12:38:48;35.50;;;23.63;;
13463;SDS011;6804;48.774;9.174;2024-01-11T12:41:16;34.87;;;22.90;;
13463;SDS011;6804;48.774;9.174;2024-01-11T12:43:44;33.17;;;21.43;;
13463;SDS011;6804;48.774;9.174;2024-01-11T12:46:11;36.40;;;22.70;;
13463;SDS011;6804;48.774;9.174;2024-01-11T12:48:45;40.13;;;25.80;;
13463;SDS011;6804;48.774;9.174;2024-01-11T12:51:14;32.27;;;22.53;;
13463;SDS011;6804;48.774;9.174;2024-01-11T12:53:45;32.83;;;21.40;;
13463;SDS011;6804;48.774;9.174;2024-01-11T12:56:15;32.93;;;22.67;;
13463;SDS011;6804;48.774;9.174;2024-01-11T12:58:43;30.57;;;21.80;;
13463;SDS011;6804;48.774;9.174;2024-01-11T13:01:14;31.40;;;20.50;;
13463;SDS011;6804;48.774;9.174;2024-01-11T13:03:46;37.40;;;22.13;;
13463;SDS011;6804;48.774;9.174;2024-01-11T13:09:09;29.30;;;20.27;;
13463;SDS011;6804;48.774;9.174;2024-01-11T13:11:39;29.90;;;20.83;;
13463;SDS011;6804;48.774;9.174;2024-01-11T13:14:10;33.97;;;21.70;;
13463;SDS011;6804;48.774;9.174;2024-01-11T13:16:45;33.43;;;21.80;;
13463;SDS011;6804;48.774;9.174;2024-01-11T13:19:15;32.10;;;21.10;;
13463;SDS011;6804;48.774;9.174;2024-01-11T13:21:44;33.07;;;21.80;;
13463;SDS011;6804;48.774;9.174;2024-01-11T13:27:04;33.37;;;20.70;;
13463;SDS011;6804;48.774;9.174;2024-01-11T13:32:20;31.30;;;22.80;;
13463;SDS011;6804;48.774;9.174;2024-01-11T13:34:50;32.63;;;21.23;;
13463;SDS011;6804;48.774;9.174;2024-01-11T13:37:20;37.90;;;21.57;;
13463;SDS011;6804;48.774;9.174;2024-01-11T13:39:50;34.73;;;20.33;;
13463;SDS011;6804;48.774;9.174;2024-01-11T13:42:19;32.50;;;21.03;;
13463;SDS011;6804;48.774;9.174;2024-01-11T13:44:46;33.27;;;22.03;;
13463;SDS011;6804;48.774;9.174;2024-01-11T13:47:14;35.13;;;23.27;;
13463;SDS011;6804;48.774;9.174;2024-01-11T13:49:45;34.43;;;22.40;;
13463;SDS011;6804;48.774;9.174;2024-01-11T13:52:23;34.47;;;23.17;;
13463;SDS011;6804;48.774;9.174;2024-01-11T13:54:51;35.73;;;22.17;;
13463;SDS011;6804;48.774;9.174;2024-01-11T13:57:21;38.97;;;25.57;;
13463;SDS011;6804;48.774;9.174;2024-01-11T13:59:51;36.90;;;23.73;;
13463;SDS011;6804;48.774;9.174;2024-01-11T14:02:19;30.57;;;22.13;;
13463;SDS011;6804;48.774;9.174;2024-01-11T14:04:46;33.03;;;21.80;;
13463;SDS011;6804;48.774;9.174;2024-01-11T14:07:17;30.70;;;21.57;;
13463;SDS011;6804;48.774;9.174;2024-01-11T14:09:46;28.67;;;20.77;;
13463;SDS011;6804;48.774;9.174;2024-01-11T14:12:14;30.27;;;20.87;;
13463;SDS011;6804;48.774;9.174;2024-01-11T14:14:49;32.10;;;20.97;;
13463;SDS011;6804;48.774;9.174;2024-01-11T14:17:16;32.53;;;21.30;;
13463;SDS011;6804;48.774;9.174;2024-01-11T14:19:44;34.17;;;21.63;;
13463;SDS011;6804;48.774;9.174;2024-01-11T14:22:20;31.70;;;21.60;;
13463;SDS011;6804;48.774;9.174;2024-01-11T14:24:50;38.93;;;22.03;;
13463;SDS011;6804;48.774;9.174;2024-01-11T14:27:17;30.40;;;21.33;;
13463;SDS011;6804;48.774;9.174;2024-01-11T14:29:46;34.47;;;21.43;;
13463;SDS011;6804;48.774;9.174;2024-01-11T14:32:16;31.47;;;22.37;;
13463;SDS011;6804;48.774;9.174;2024-01-11T14:34:47;31.57;;;20.87;;
13463;SDS011;6804;48.774;9.174;2024-01-11T14:37:21;35.03;;;22.10;;
13463;SDS011;6804;48.774;9.174;2024-01-11T14:39:53;31.20;;;22.20;;
13463;SDS011;6804;48.774;9.174;2024-01-11T14:42:22;37.93;;;22.13;;
13463;SDS011;6804;48.774;9.174;2024-01-11T14:44:50;34.77;;;23.33;;
13463;SDS011;6804;48.774;9.174;2024-01-11T14:47:18;33.37;;;21.80;;
13463;SDS011;6804;48.774;9.174;2024-01-11T14:49:49;30.57;;;21.33;;
13463;SDS011;6804;48.774;9.174;2024-01-11T14:52:16;33.23;;;21.03;;
13463;SDS011;6804;48.774;9.174;2024-01-11T14:54:48;34.70;;;22.13;;
13463;SDS011;6804;48.774;9.174;2024-01-11T14:57:21;37.23;;;23.03;;
13463;SDS011;6804;48.774;9.174;2024-01-11T14:59:50;32.80;;;22.23;;
13463;SDS011;6804;48.774;9.174;2024-01-11T15:02:18;35.87;;;22.50;;
13463;SDS011;6804;48.774;9.174;2024-01-11T15:04:49;32.50;;;20.87;;
13463;SDS011;6804;48.774;9.174;2024-01-11T15:07:20;33.17;;;22.50;;
13463;SDS011;6804;48.774;9.174;2024-01-11T15:09:47;31.63;;;22.30;;
13463;SDS011;6804;48.774;9.174;2024-01-11T15:12:18;34.60;;;23.10;;
13463;SDS011;6804;48.774;9.174;2024-01-11T15:15:04;30.17;;;21.53;;
13463;SDS011;6804;48.774;9.174;2024-01-11T15:17:33;33.10;;;22.23;;
13463;SDS011;6804;48.774;9.174;2024-01-11T15:20:01;34.57;;;22.67;;
13463;SDS011;6804;48.774;9.174;2024-01-11T15:22:31;42.50;;;23.07;;
13463;SDS011;6804;48.774;9.174;2024-01-11T15:25:02;32.40;;;21.97;;
13463;SDS011;6804;48.774;9.174;2024-01-11T15:27:32;34.57;;;22.17;;
13463;SDS011;6804;48.774;9.174;2024-01-11T15:30:00;33.13;;;22.73;;